Station: Badgingarra  

  Atmospheric Gas Attenuation - ITU Rec 676-11   ----------------- dB/100km -----------------
Date Time Temp RH % AH g/m3 Dew Point Wind Direction Speed kph Gust kph Barometer mB Rainfall Since 9am 24GHz 47GHz 76GHz 122GHz 134GHz 241GHz
03/05 08:00 11.5 73 7.54 6.8 15 20 1013.1 0 17.4 24.8 36.7 96.1 87.2 298.9
03/05 07:50 10.9 75 7.46 6.6 15 17 1013.1 0 17.3 24.9 36.6 95.9 86.8 297.5
03/05 07:40 10.3 76 7.28 6.2 13 15 1013.1 0 16.9 24.7 36.2 94.7 85.1 291.5
03/05 07:30 9.9 76 7.1 5.9 15 20 1013.1 0 16.6 24.6 35.6 93.3 83.2 284.6
03/05 07:20 9.6 76 6.96 5.7 17 19 1013.1 0 16.3 24.4 35.2 92.2 81.6 279.2
03/05 07:10 9.1 79 7.01 5.6 15 19 1013.1 0 16.4 24.6 35.6 93.3 82.8 283.3
03/05 07:00 8.2 82 6.87 5.3 13 15 1013.1 0 16.1 24.7 35.5 92.8 81.9 280.0
03/05 06:50 7.7 82 6.65 4.8 11 13 1013.1 0 15.7 24.4 34.8 91.0 79.5 271.5
03/05 06:40 7.8 79 6.45 4.5 9 11 1013.1 0 15.2 24.1 34.0 88.8 76.8 261.9
03/05 06:30 8.3 78 6.58 4.7 11 13 1013.1 0 15.5 24.2 34.3 89.6 78.0 266.2
03/05 06:20 8.8 77 6.7 5 13 15 1013.1 0 15.7 24.2 34.5 90.3 79.1 270.1
03/05 06:10 9.1 76 6.75 5.1 11 13 1013.1 0 15.8 24.2 34.6 90.5 79.4 271.3
03/05 06:00 9 77 6.79 5.2 15 19 1013.1 0 15.9 24.3 34.8 91.0 80.0 273.5
03/05 05:50 9 76 6.7 5 15 17 1013.1 0 15.7 24.2 34.4 90.1 78.8 269.4
03/05 05:40 9.5 74 6.74 5.1 15 19 1013.1 0 15.8 24.1 34.4 89.9 78.9 269.5
03/05 05:30 9.5 74 6.74 5.1 15 19 1013.1 0 15.8 24.1 34.4 89.9 78.9 269.5
03/05 05:20 9.5 74 6.74 5.1 15 17 1013.1 0 15.8 24.1 34.4 89.9 78.9 269.5
03/05 05:10 9.2 76 6.79 5.2 15 17 1013.1 0 15.9 24.3 34.7 90.8 79.8 272.8
03/05 05:00 9.2 76 6.79 5.2 13 19 1013.1 0 15.9 24.3 34.7 90.8 79.8 272.8
03/05 04:50 9 76 6.7 5 11 13 1013.1 0 15.7 24.2 34.4 90.1 78.8 269.4
03/05 04:40 9.1 76 6.75 5.1 13 17 1013.1 0 15.8 24.2 34.6 90.5 79.4 271.3
03/05 04:30 9.1 76 6.75 5.1 13 17 1013.1 0 15.8 24.2 34.6 90.5 79.4 271.3
03/05 04:20 9.1 76 6.75 5.1 11 15 1013.1 0 15.8 24.2 34.6 90.5 79.4 271.3
03/05 04:10 9.1 75 6.66 4.9 13 15 1013.1 0 15.6 24.1 34.2 89.5 78.2 267.2
03/05 04:00 9.4 75 6.79 5.2 15 17 1013.1 0 15.9 24.2 34.6 90.6 79.6 272.1
03/05 03:50 9.2 76 6.79 5.2 13 15 1013.1 0 15.9 24.3 34.7 90.8 79.8 272.8
03/05 03:40 9 76 6.7 5 15 15 1013.1 0 15.7 24.2 34.4 90.1 78.8 269.4
03/05 03:30 9.1 76 6.75 5.1 13 19 1013.1 0 15.8 24.2 34.6 90.5 79.4 271.3
03/05 03:20 8.5 80 6.83 5.2 15 17 1013.1 0 16.0 24.5 35.2 92.0 81.1 277.1
03/05 03:10 8.4 77 6.53 4.6 13 13 1013.1 0 15.4 24.1 34.0 89.0 77.2 263.6
03/05 03:00 8.7 76 6.58 4.7 11 15 1013.1 0 15.5 24.1 34.1 89.1 77.6 264.9
03/05 02:50 8.9 76 6.66 4.9 11 13 1013.1 0 15.7 24.1 34.3 89.8 78.4 267.9
03/05 02:40 8.6 77 6.62 4.8 9 9 1013.1 0 15.6 24.2 34.3 89.7 78.2 267.0
03/05 02:30 8.8 77 6.7 5 9 11 1013.1 0 15.7 24.2 34.5 90.3 79.1 270.1
03/05 02:20 8.9 76 6.66 4.9 11 11 1013.1 0 15.7 24.1 34.3 89.8 78.4 267.9
03/05 02:10 9.1 76 6.75 5.1 9 11 1013.1 0 15.8 24.2 34.6 90.5 79.4 271.3
03/05 02:00 9.1 76 6.75 5.1 11 15 1013.1 0 15.8 24.2 34.6 90.5 79.4 271.3
03/05 01:50 9.1 76 6.75 5.2 11 13 1013.1 0 15.8 24.2 34.6 90.5 79.4 271.3
03/05 01:40 8.6 77 6.62 4.9 9 11 1013.1 0 15.6 24.2 34.3 89.7 78.2 267.0
03/05 01:30 8.6 78 6.7 5 9 11 1013.1 0 15.7 24.3 34.6 90.5 79.3 270.7
03/05 01:20 8.4 78 6.62 4.8 9 11 1013.1 0 15.6 24.2 34.4 89.9 78.4 267.7
03/05 01:10 8.5 77 6.58 4.7 9 11 1013.1 0 15.5 24.1 34.2 89.4 77.8 265.5
03/05 01:00 8.8 76 6.62 4.8 11 11 1013.1 0 15.6 24.1 34.2 89.5 78.0 266.4
03/05 00:50 9.1 76 6.75 5.1 11 13 1013.1 0 15.8 24.2 34.6 90.5 79.4 271.3
03/05 00:40 9 76 6.7 5 11 11 1013.1 0 15.7 24.2 34.4 90.1 78.8 269.4
03/05 00:30 8.9 76 6.66 4.9 9 13 1013.1 0 15.7 24.1 34.3 89.8 78.4 267.9
03/05 00:20 8.8 77 6.7 5 9 11 1013.1 0 15.7 24.2 34.5 90.3 79.1 270.1
03/05 00:10 8.6 79 6.79 5.1 11 13 1013.1 0 15.9 24.4 35.0 91.5 80.4 274.9
03/05 00:00 7.9 82 6.74 5 11 13 1013.1 0 15.9 24.5 35.1 91.8 80.5 275.0
02/05 23:50 8 80 6.62 4.7 9 11 1013.1 0 15.6 24.3 34.5 90.4 78.8 269.1
02/05 23:40 8.3 78 6.58 4.8 9 9 1013.1 0 15.5 24.2 34.3 89.6 78.0 266.2
02/05 23:30 8.3 80 6.75 5.1 11 13 1013.1 0 15.9 24.4 34.9 91.4 80.2 274.1
02/05 23:20 7.9 83 6.82 5.2 11 11 1013.1 0 16.0 24.7 35.4 92.6 81.6 278.8
02/05 23:10 7.6 83 6.69 4.9 13 13 1013.1 0 15.8 24.5 35.0 91.6 80.1 273.7
02/05 23:00 7.8 82 6.7 4.9 9 11 1013.1 0 15.8 24.5 35.0 91.5 80.1 273.5
02/05 22:50 7.9 82 6.74 5 9 11 1013.1 0 15.9 24.5 35.1 91.8 80.5 275.0
02/05 22:40 8.2 82 6.87 5.3 11 11 1013.1 0 16.1 24.7 35.5 92.8 81.9 280.0
02/05 22:30 8.2 81 6.79 5.1 11 13 1013.1 0 16.0 24.5 35.1 92.0 80.9 276.3
02/05 22:20 8.2 82 6.87 5.3 11 11 1013.1 0 16.1 24.7 35.5 92.8 81.9 280.0
02/05 22:10 7.9 82 6.74 5 9 9 1013.1 0 15.9 24.5 35.1 91.8 80.5 275.0
02/05 22:00 8 82 6.78 5.1 7 9 1013.1 0 15.9 24.6 35.2 92.1 80.9 276.5
02/05 21:50 8.1 82 6.83 5.2 7 7 1013.1 0 16.0 24.6 35.3 92.5 81.5 278.5
02/05 21:40 8 84 6.95 5.4 9 9 1013.1 0 16.3 24.9 35.9 93.9 83.2 284.5
02/05 21:30 7.8 83 6.78 5.1 9 9 1013.1 0 16.0 24.6 35.3 92.3 81.1 277.3
02/05 21:20 8.1 82 6.83 5.2 9 9 1013.1 0 16.0 24.6 35.3 92.5 81.5 278.5
02/05 21:10 8.3 81 6.83 5.2 9 9 1013.1 0 16.0 24.6 35.3 92.3 81.3 277.8
02/05 21:00 8.4 80 6.79 5.2 9 9 1013.1 0 15.9 24.5 35.1 91.7 80.7 275.6
02/05 20:50 8.8 79 6.88 5.3 7 7 1013.1 0 16.1 24.5 35.2 92.2 81.4 278.4
02/05 20:40 8.8 77 6.7 5.1 9 9 1013.1 0 15.7 24.2 34.5 90.3 79.1 270.1
02/05 20:30 8.6 79 6.79 5.2 9 11 1013.1 0 15.9 24.4 35.0 91.5 80.4 274.9
02/05 20:20 8.6 79 6.79 5.1 6 7 1013.1 0 15.9 24.4 35.0 91.5 80.4 274.9
02/05 20:10 8.7 79 6.83 5.2 9 9 1013.1 0 16.0 24.5 35.1 91.8 80.9 276.4
02/05 20:00 9 78 6.88 5.4 11 13 1013.1 0 16.1 24.5 35.2 92.0 81.2 277.7
02/05 19:50 9.2 76 6.79 5.3 13 13 1013.1 0 15.9 24.3 34.7 90.8 79.8 272.8
02/05 19:40 9.8 73 6.77 5.2 11 11 1013.1 0 15.8 24.1 34.4 89.9 79.0 269.8
02/05 19:30 10.2 72 6.85 5.4 7 9 1013.1 0 16.0 24.1 34.5 90.3 79.6 272.1
02/05 19:20 10.2 69 6.57 4.9 7 7 1013.1 0 15.4 23.6 33.4 87.4 76.0 259.4
02/05 19:10 10.4 69 6.65 5.1 9 9 1013.1 0 15.6 23.7 33.6 88.0 76.8 262.4
02/05 19:00 11.4 64 6.57 4.8 9 9 1013.1 0 15.4 23.3 32.9 86.1 74.8 255.6
02/05 18:50 11.7 63 6.59 4.9 7 9 1013.1 0 15.4 23.3 32.9 85.9 74.8 255.5
02/05 18:40 12.1 62 6.65 5 9 9 1013.1 0 15.5 23.3 32.9 86.1 75.2 256.8
02/05 18:30 12.1 62 6.65 5 9 13 1013.1 0 15.5 23.3 32.9 86.1 75.2 256.8
02/05 18:20 12.5 60 6.6 4.9 9 9 1013.1 0 15.4 23.1 32.6 85.2 74.2 253.4
02/05 18:10 12.8 59 6.61 5 7 7 1013.1 0 15.4 23.0 32.5 85.0 74.0 252.9
02/05 18:00 13.2 57 6.55 4.9 6 7 1013.1 0 15.2 22.8 32.1 83.9 72.9 249.0
02/05 17:50 13.4 56 6.51 4.8 6 6 1013.1 0 15.2 22.7 31.9 83.3 72.2 246.7
02/05 17:40 14.2 54 6.59 5 7 7 1013.1 0 15.3 22.7 31.9 83.3 72.5 247.6
02/05 17:30 15 50 6.41 4.7 9 13 1013.1 0 14.9 22.2 30.9 80.7 69.6 237.6
02/05 17:20 15.6 47 6.25 4.3 11 11 1013.1 0 14.5 21.8 30.1 78.6 67.2 229.2
02/05 17:10 15.9 46 6.23 4.3 11 15 1013.1 0 14.5 21.7 29.9 78.1 66.7 227.5
02/05 17:00 16.1 46 6.31 4.5 13 17 1013.1 0 14.6 21.8 30.1 78.7 67.4 230.3
02/05 16:50 16.3 44 6.1 4 15 17 1013.1 0 14.2 21.4 29.3 76.5 64.8 221.1
02/05 16:40 16.4 45 6.28 4.4 17 19 1013.1 0 14.6 21.7 29.9 78.1 66.8 228.2
02/05 16:30 16.6 44 6.22 4.3 17 22 1013.1 0 14.4 21.5 29.6 77.3 66.0 225.2
02/05 16:20 16.7 43 6.11 4 19 22 1013.1 0 14.2 21.4 29.2 76.2 64.6 220.4
02/05 16:10 16.9 43 6.18 4.2 19 22 1013.1 0 14.3 21.4 29.4 76.7 65.3 222.7
02/05 16:00 16.9 43 6.18 4.3 17 24 1013.1 0 14.3 21.4 29.4 76.7 65.3 222.7
02/05 15:50 16.9 42 6.04 3.9 19 22 1013.1 0 14.0 21.2 28.9 75.4 63.7 217.1
02/05 15:40 16.9 41 5.9 3.5 19 22 1013.1 0 13.7 21.0 28.4 74.1 62.0 211.4
02/05 15:30 17.2 42 6.15 4.2 19 28 1013.1 0 14.3 21.3 29.2 76.1 64.7 220.7

Last Refresh: 03-May-2026 09:37:32

Bureau of Meteorology